createdAt,value
2019-04-07T00:00:15.335Z,10.70
2019-04-07T00:02:42.592Z,10.72
2019-04-07T00:05:14.174Z,10.76
2019-04-07T00:07:39.387Z,10.74
2019-04-07T00:10:08.333Z,10.76
2019-04-07T00:12:37.905Z,10.74
2019-04-07T00:15:06.001Z,10.74
2019-04-07T00:17:33.234Z,10.78
2019-04-07T00:20:00.664Z,10.75
2019-04-07T00:22:28.038Z,10.72
2019-04-07T00:24:55.614Z,10.74
2019-04-07T00:27:23.031Z,10.67
2019-04-07T00:29:50.833Z,10.66
2019-04-07T00:32:18.256Z,10.61
2019-04-07T00:34:45.539Z,10.64
2019-04-07T00:37:12.890Z,10.64
2019-04-07T00:39:40.209Z,10.64
2019-04-07T00:42:07.553Z,10.60
2019-04-07T00:44:35.375Z,10.57
2019-04-07T00:47:03.106Z,10.58
2019-04-07T00:49:31.128Z,10.53
2019-04-07T00:51:59.825Z,10.48
2019-04-07T00:54:27.034Z,10.40
2019-04-07T00:56:54.492Z,10.40
2019-04-07T00:59:21.716Z,10.43
2019-04-07T01:01:48.912Z,10.35
2019-04-07T01:04:16.457Z,10.39
2019-04-07T01:06:43.802Z,10.42
2019-04-07T01:09:11.428Z,10.44
2019-04-07T01:11:38.797Z,10.32
2019-04-07T01:14:07.004Z,10.37
2019-04-07T01:16:34.435Z,10.33
2019-04-07T01:19:02.293Z,10.27
2019-04-07T01:21:30.304Z,10.28
2019-04-07T01:23:57.864Z,10.26
2019-04-07T01:26:25.259Z,10.20
2019-04-07T01:28:54.529Z,10.14
2019-04-07T01:31:22.474Z,10.10
2019-04-07T01:33:49.806Z,10.23
2019-04-07T01:36:17.232Z,10.21
2019-04-07T01:38:44.561Z,10.23
2019-04-07T01:41:24.030Z,10.09
2019-04-07T01:44:00.142Z,10.21
2019-04-07T01:46:37.076Z,10.29
2019-04-07T01:49:13.476Z,10.25
2019-04-07T01:51:46.673Z,10.30
2019-04-07T01:54:32.002Z,10.30
2019-04-07T01:57:15.931Z,10.31
2019-04-07T02:00:14.668Z,10.31
2019-04-07T02:02:56.897Z,10.25
2019-04-07T02:06:03.877Z,10.27
2019-04-07T02:08:38.589Z,10.24
2019-04-07T02:11:31.728Z,10.21
2019-04-07T02:14:19.301Z,10.25
2019-04-07T02:16:59.345Z,10.22
2019-04-07T02:19:49.930Z,10.21
2019-04-07T02:22:42.718Z,10.18
2019-04-07T02:25:26.401Z,10.24
2019-04-07T02:28:12.177Z,10.19
2019-04-07T02:31:00.656Z,10.16
2019-04-07T02:33:51.090Z,10.18
2019-04-07T02:36:30.281Z,10.11
2019-04-07T02:39:13.131Z,10.08
2019-04-07T02:41:52.015Z,10.11
2019-04-07T02:44:53.946Z,10.00
2019-04-07T02:47:39.443Z,10.08
2019-04-07T02:50:26.311Z,10.07
2019-04-07T02:53:13.490Z,10.05
2019-04-07T02:56:01.837Z,10.06
2019-04-07T02:58:45.205Z,10.07
2019-04-07T03:01:35.148Z,10.07
2019-04-07T03:04:22.967Z,10.07
2019-04-07T03:07:25.113Z,10.03
2019-04-07T03:10:31.102Z,10.03
2019-04-07T03:13:24.306Z,9.95
2019-04-07T03:16:12.528Z,9.94
2019-04-07T03:18:44.502Z,9.94
2019-04-07T03:21:28.304Z,9.96
2019-04-07T03:24:08.047Z,9.92
2019-04-07T03:26:55.595Z,9.93
2019-04-07T03:29:45.347Z,9.91
2019-04-07T03:32:37.514Z,9.92
2019-04-07T03:35:34.399Z,9.89
2019-04-07T03:38:33.627Z,9.82
2019-04-07T03:41:19.705Z,9.89
2019-04-07T03:43:55.055Z,9.88
2019-04-07T03:46:45.779Z,9.91
2019-04-07T03:49:50.988Z,9.96
2019-04-07T03:52:28.749Z,10.00
2019-04-07T03:55:11.806Z,9.97
2019-04-07T03:57:53.447Z,10.02
2019-04-07T04:01:25.783Z,10.02
2019-04-07T04:04:13.738Z,10.05
2019-04-07T04:07:00.120Z,10.04
2019-04-07T04:09:47.603Z,10.04
2019-04-07T04:12:20.063Z,10.00
2019-04-07T04:15:00.559Z,10.11
2019-04-07T04:17:28.990Z,10.10
2019-04-07T04:19:56.236Z,10.08
2019-04-07T04:22:23.461Z,10.13
2019-04-07T04:24:51.776Z,10.12
2019-04-07T04:27:19.012Z,10.16
2019-04-07T04:29:46.563Z,10.17
2019-04-07T04:32:13.945Z,10.14
2019-04-07T04:34:41.253Z,10.12
2019-04-07T04:37:09.429Z,10.15
2019-04-07T04:39:37.494Z,10.18
2019-04-07T04:42:05.538Z,10.14
2019-04-07T04:44:32.988Z,10.18
2019-04-07T04:47:01.616Z,10.19
2019-04-07T04:49:29.687Z,10.15
2019-04-07T04:51:57.150Z,10.11
2019-04-07T04:54:24.904Z,10.14
2019-04-07T04:56:53.529Z,10.21
2019-04-07T04:59:21.656Z,10.24
2019-04-07T05:01:49.055Z,10.20
2019-04-07T05:04:16.309Z,10.17
2019-04-07T05:06:43.654Z,10.22
2019-04-07T05:09:11.054Z,10.22
2019-04-07T05:11:38.339Z,10.22
2019-04-07T05:14:05.917Z,10.23
2019-04-07T05:16:33.281Z,10.26
2019-04-07T05:19:00.759Z,10.11
2019-04-07T05:21:28.213Z,10.11
2019-04-07T05:23:56.164Z,10.05
2019-04-07T05:26:24.037Z,10.14
2019-04-07T05:28:51.462Z,10.23
2019-04-07T05:31:18.778Z,10.25
2019-04-07T05:33:46.489Z,10.15
2019-04-07T05:36:13.815Z,10.17
2019-04-07T05:38:41.111Z,10.45
2019-04-07T05:41:08.319Z,10.47
2019-04-07T05:43:35.581Z,10.48
2019-04-07T05:46:05.861Z,10.55
2019-04-07T05:48:32.654Z,10.74
2019-04-07T05:51:01.058Z,10.67
2019-04-07T05:53:28.657Z,10.58
2019-04-07T05:55:56.281Z,10.72
2019-04-07T05:58:24.185Z,10.80
2019-04-07T06:00:51.687Z,10.79
2019-04-07T06:03:20.316Z,10.95
2019-04-07T06:05:50.810Z,11.11
2019-04-07T06:08:24.629Z,11.22
2019-04-07T06:10:48.927Z,11.42
2019-04-07T06:13:17.467Z,11.42
2019-04-07T06:15:45.718Z,11.31
2019-04-07T06:18:13.778Z,11.47
2019-04-07T06:20:44.106Z,11.57
2019-04-07T06:23:10.309Z,11.62
2019-04-07T06:25:41.535Z,11.65
2019-04-07T06:28:07.191Z,11.81
2019-04-07T06:30:36.201Z,11.87
2019-04-07T06:33:06.120Z,12.00
2019-04-07T06:35:33.580Z,12.15
2019-04-07T06:38:05.240Z,12.31
2019-04-07T06:40:30.623Z,12.48
2019-04-07T06:42:57.951Z,12.50
2019-04-07T06:45:30.596Z,12.60
2019-04-07T06:48:01.530Z,12.72
2019-04-07T06:50:56.627Z,12.72
2019-04-07T06:53:46.785Z,12.79
2019-04-07T06:56:46.775Z,12.69
2019-04-07T06:59:26.131Z,12.69
2019-04-07T07:02:15.704Z,12.84
2019-04-07T07:05:02.984Z,12.84
2019-04-07T07:07:53.106Z,12.77
2019-04-07T07:10:39.951Z,13.06
2019-04-07T07:13:29.252Z,13.16
2019-04-07T07:16:20.734Z,13.16
2019-04-07T07:19:06.412Z,13.17
2019-04-07T07:22:13.141Z,13.39
2019-04-07T07:24:38.101Z,13.54
2019-04-07T07:27:09.352Z,13.59
2019-04-07T07:29:36.217Z,13.62
2019-04-07T07:32:04.859Z,13.62
2019-04-07T07:34:32.383Z,13.93
2019-04-07T07:36:59.989Z,14.01
2019-04-07T07:39:27.273Z,14.04
2019-04-07T07:41:55.095Z,14.31
2019-04-07T07:44:22.428Z,14.17
2019-04-07T07:46:51.500Z,14.21
2019-04-07T07:49:19.195Z,14.36
2019-04-07T07:51:48.421Z,14.57
2019-04-07T07:54:16.179Z,14.59
2019-04-07T07:56:49.421Z,14.85
2019-04-07T07:59:13.430Z,14.82
2019-04-07T08:01:44.281Z,14.78
2019-04-07T08:04:09.824Z,14.53
2019-04-07T08:06:40.191Z,14.92
2019-04-07T08:09:12.888Z,14.74
2019-04-07T08:11:37.276Z,15.17
2019-04-07T08:14:04.556Z,15.06
2019-04-07T08:16:32.550Z,15.40
2019-04-07T08:19:01.305Z,15.18
2019-04-07T08:21:29.137Z,15.07
2019-04-07T08:23:56.807Z,15.11
2019-04-07T08:26:25.148Z,15.39
2019-04-07T08:28:53.379Z,15.63
2019-04-07T08:31:21.541Z,15.72
2019-04-07T08:33:51.240Z,15.64
2019-04-07T08:36:18.322Z,15.86
2019-04-07T08:38:45.629Z,16.17
2019-04-07T08:41:15.481Z,16.31
2019-04-07T08:43:42.099Z,16.50
2019-04-07T08:46:09.943Z,16.84
2019-04-07T08:48:37.433Z,16.75
2019-04-07T08:51:04.786Z,16.94
2019-04-07T08:53:32.012Z,16.77
2019-04-07T08:55:59.882Z,16.84
2019-04-07T08:58:28.983Z,17.23
2019-04-07T09:00:57.359Z,17.17
2019-04-07T09:03:24.681Z,17.53
2019-04-07T09:05:57.403Z,17.53
2019-04-07T09:08:24.962Z,17.63
2019-04-07T09:11:06.723Z,17.48
2019-04-07T09:13:34.295Z,17.57
2019-04-07T09:16:24.680Z,17.61
2019-04-07T09:19:09.594Z,17.76
2019-04-07T09:22:08.311Z,17.78
2019-04-07T09:25:06.606Z,17.97
2019-04-07T09:27:49.321Z,18.15
2019-04-07T09:30:48.892Z,18.09
2019-04-07T09:33:42.121Z,18.03
2019-04-07T09:36:18.016Z,18.14
2019-04-07T09:38:57.036Z,18.02
2019-04-07T09:41:52.710Z,18.00
2019-04-07T09:44:40.209Z,17.90
2019-04-07T09:47:21.488Z,17.98
2019-04-07T09:50:14.249Z,18.15
2019-04-07T09:53:03.914Z,18.35
2019-04-07T09:55:41.112Z,18.34
2019-04-07T09:58:21.667Z,18.42
2019-04-07T10:01:06.709Z,18.10
2019-04-07T10:03:43.687Z,18.16
2019-04-07T10:06:25.744Z,18.37
2019-04-07T10:09:05.648Z,18.59
2019-04-07T10:11:57.905Z,18.40
2019-04-07T10:14:48.836Z,18.40
2019-04-07T10:17:35.725Z,18.34
2019-04-07T10:20:32.573Z,18.28
2019-04-07T10:23:16.275Z,18.14
2019-04-07T10:25:56.198Z,18.28
2019-04-07T10:28:43.461Z,18.39
2019-04-07T10:31:43.247Z,18.22
2019-04-07T10:34:31.035Z,18.05
2019-04-07T10:37:22.043Z,18.18
2019-04-07T10:40:16.713Z,18.23
2019-04-07T10:42:55.533Z,18.38
2019-04-07T10:45:38.288Z,18.36
2019-04-07T10:48:28.606Z,18.57
2019-04-07T10:51:10.448Z,18.74
2019-04-07T10:53:57.328Z,18.66
2019-04-07T10:56:56.386Z,18.86
2019-04-07T10:59:53.236Z,18.63
2019-04-07T11:02:29.413Z,18.63
2019-04-07T11:05:16.257Z,18.64
2019-04-07T11:08:09.091Z,18.51
2019-04-07T11:11:01.655Z,18.68
2019-04-07T11:13:49.996Z,18.63
2019-04-07T11:16:46.301Z,18.72
2019-04-07T11:19:53.025Z,18.78
2019-04-07T11:22:38.307Z,18.80
2019-04-07T11:25:34.741Z,18.88
2019-04-07T11:28:20.843Z,19.11
2019-04-07T11:30:57.444Z,19.06
2019-04-07T11:33:47.063Z,19.19
2019-04-07T11:36:23.475Z,19.34
2019-04-07T11:38:59.417Z,19.29
2019-04-07T11:42:05.733Z,19.42
2019-04-07T11:44:55.469Z,19.40
2019-04-07T11:47:42.769Z,19.44
2019-04-07T11:50:32.706Z,19.54
2019-04-07T11:53:18.344Z,19.63
2019-04-07T11:56:23.950Z,19.52
2019-04-07T11:59:22.794Z,19.71
2019-04-07T12:02:12.607Z,19.99
2019-04-07T12:05:08.248Z,20.07
2019-04-07T12:08:10.464Z,20.12
2019-04-07T12:11:06.604Z,20.21
2019-04-07T12:13:42.889Z,20.23
2019-04-07T12:16:35.097Z,20.19
2019-04-07T12:19:23.900Z,20.09
2019-04-07T12:22:05.539Z,20.00
2019-04-07T12:24:50.506Z,20.10
2019-04-07T12:27:47.137Z,20.09
2019-04-07T12:30:36.931Z,20.04
2019-04-07T12:33:29.664Z,20.02
2019-04-07T12:36:30.228Z,20.03
2019-04-07T12:39:23.044Z,20.19
2019-04-07T12:42:07.067Z,20.04
2019-04-07T12:44:53.823Z,20.02
2019-04-07T12:47:39.773Z,20.02
2019-04-07T12:50:39.220Z,20.19
2019-04-07T12:53:33.476Z,20.17
2019-04-07T12:56:31.539Z,20.30
2019-04-07T12:59:15.737Z,20.33
2019-04-07T13:01:50.990Z,20.24
2019-04-07T13:04:40.784Z,20.18
2019-04-07T13:07:37.612Z,20.21
2019-04-07T13:10:14.372Z,20.38
2019-04-07T13:12:55.823Z,20.28
2019-04-07T13:15:38.924Z,20.21
2019-04-07T13:18:37.779Z,20.18
2019-04-07T13:21:24.567Z,20.30
2019-04-07T13:24:12.700Z,20.10
2019-04-07T13:27:14.154Z,20.19
2019-04-07T13:30:04.114Z,20.24
2019-04-07T13:32:57.550Z,20.34
2019-04-07T13:35:49.263Z,20.34
2019-04-07T13:38:22.961Z,20.31
2019-04-07T13:41:12.263Z,20.30
2019-04-07T13:44:08.873Z,20.55
2019-04-07T13:47:01.868Z,20.50
2019-04-07T13:49:41.331Z,20.67
2019-04-07T13:52:19.325Z,20.52
2019-04-07T13:54:54.910Z,20.47
2019-04-07T13:57:42.816Z,20.49
2019-04-07T14:00:18.473Z,20.54
2019-04-07T14:02:56.096Z,20.42
2019-04-07T14:05:38.840Z,20.38
2019-04-07T14:08:25.808Z,20.50
2019-04-07T14:11:11.053Z,20.48
2019-04-07T14:13:57.671Z,20.34
2019-04-07T14:16:43.250Z,20.34
2019-04-07T14:19:32.063Z,19.86
2019-04-07T14:22:14.458Z,19.63
2019-04-07T14:24:53.758Z,19.53
2019-04-07T14:27:41.385Z,19.34
2019-04-07T14:30:35.306Z,19.40
2019-04-07T14:33:34.058Z,19.38
2019-04-07T14:36:23.823Z,19.32
2019-04-07T14:39:17.709Z,19.27
2019-04-07T14:42:07.608Z,19.27
2019-04-07T14:44:48.692Z,19.28
2019-04-07T14:47:31.291Z,19.13
2019-04-07T14:50:17.118Z,19.13
2019-04-07T14:53:07.699Z,19.20
2019-04-07T14:56:00.190Z,18.97
2019-04-07T14:58:48.500Z,19.10
2019-04-07T15:01:36.821Z,19.09
2019-04-07T15:04:05.176Z,19.00
2019-04-07T15:06:35.074Z,18.93
2019-04-07T15:09:13.597Z,18.68
2019-04-07T15:11:51.264Z,18.64
2019-04-07T15:14:19.211Z,18.53
2019-04-07T15:16:47.850Z,18.45
2019-04-07T15:19:17.846Z,18.42
2019-04-07T15:21:45.285Z,18.38
2019-04-07T15:24:13.274Z,18.29
2019-04-07T15:26:40.613Z,18.27
2019-04-07T15:29:10.606Z,18.20
2019-04-07T15:31:37.455Z,18.26
2019-04-07T15:34:08.572Z,18.10
2019-04-07T15:36:33.990Z,18.15
2019-04-07T15:39:01.299Z,18.09
2019-04-07T15:41:28.535Z,18.16
2019-04-07T15:43:55.827Z,17.98
2019-04-07T15:46:23.625Z,17.96
2019-04-07T15:48:54.283Z,17.89
2019-04-07T15:51:20.182Z,17.85
2019-04-07T15:53:51.330Z,17.63
2019-04-07T15:56:18.416Z,17.68
2019-04-07T15:58:46.418Z,17.63
2019-04-07T16:01:13.927Z,17.59
2019-04-07T16:03:41.926Z,17.64
2019-04-07T16:06:09.757Z,17.46
2019-04-07T16:08:39.311Z,17.44
2019-04-07T16:11:07.020Z,17.43
2019-04-07T16:13:34.348Z,17.36
2019-04-07T16:16:02.652Z,17.30
2019-04-07T16:18:30.087Z,17.36
2019-04-07T16:20:58.022Z,17.23
2019-04-07T16:23:26.137Z,17.24
2019-04-07T16:25:54.951Z,17.19
2019-04-07T16:28:22.870Z,17.09
2019-04-07T16:30:52.041Z,17.06
2019-04-07T16:33:19.523Z,17.06
2019-04-07T16:35:51.941Z,17.08
2019-04-07T16:38:16.395Z,17.04
2019-04-07T16:40:44.630Z,17.00
2019-04-07T16:43:16.129Z,16.98
2019-04-07T16:45:44.135Z,16.84
2019-04-07T16:48:10.828Z,16.82
2019-04-07T16:50:38.237Z,16.75
2019-04-07T16:53:07.576Z,16.72
2019-04-07T16:55:41.806Z,16.79
2019-04-07T16:58:09.663Z,16.71
2019-04-07T17:00:38.230Z,16.64
2019-04-07T17:03:07.730Z,16.60
2019-04-07T17:05:35.485Z,16.50
2019-04-07T17:08:03.816Z,16.51
2019-04-07T17:10:34.139Z,16.47
2019-04-07T17:13:02.813Z,16.27
2019-04-07T17:15:29.675Z,16.23
2019-04-07T17:17:57.036Z,16.12
2019-04-07T17:20:27.187Z,16.04
2019-04-07T17:22:54.150Z,15.94
2019-04-07T17:25:21.695Z,15.78
2019-04-07T17:27:49.786Z,15.81
2019-04-07T17:30:18.396Z,15.74
2019-04-07T17:32:45.884Z,15.65
2019-04-07T17:35:17.192Z,15.58
2019-04-07T17:37:43.798Z,15.62
2019-04-07T17:40:14.730Z,15.57
2019-04-07T17:42:45.058Z,15.52
2019-04-07T17:45:43.109Z,15.45
2019-04-07T17:48:53.321Z,15.43
2019-04-07T17:51:40.370Z,15.35
2019-04-07T17:54:36.543Z,15.23
2019-04-07T17:57:12.015Z,15.26
2019-04-07T17:59:58.270Z,15.20
2019-04-07T18:02:54.865Z,15.15
2019-04-07T18:05:32.416Z,15.17
2019-04-07T18:08:19.893Z,15.13
2019-04-07T18:11:00.987Z,15.08
2019-04-07T18:13:51.587Z,14.89
2019-04-07T18:16:46.110Z,14.95
2019-04-07T18:19:34.830Z,14.84
2019-04-07T18:22:23.523Z,14.70
2019-04-07T18:25:03.728Z,14.36
2019-04-07T18:27:53.333Z,14.44
2019-04-07T18:30:47.233Z,14.39
2019-04-07T18:33:25.388Z,14.29
2019-04-07T18:36:07.009Z,14.13
2019-04-07T18:39:09.861Z,14.16
2019-04-07T18:42:11.416Z,14.20
2019-04-07T18:45:04.058Z,14.19
2019-04-07T18:47:48.332Z,13.84
2019-04-07T18:50:45.423Z,13.82
2019-04-07T18:53:30.739Z,13.73
2019-04-07T18:56:27.146Z,13.84
2019-04-07T18:59:32.008Z,13.78
2019-04-07T19:02:24.867Z,13.66
2019-04-07T19:05:05.086Z,13.63
2019-04-07T19:07:59.522Z,13.58
2019-04-07T19:11:12.361Z,13.47
2019-04-07T19:14:01.814Z,13.32
2019-04-07T19:16:47.099Z,13.19
2019-04-07T19:19:34.056Z,13.32
2019-04-07T19:22:15.872Z,13.21
2019-04-07T19:25:21.452Z,13.08
2019-04-07T19:28:11.460Z,13.05
2019-04-07T19:31:10.735Z,13.23
2019-04-07T19:34:16.180Z,13.13
2019-04-07T19:36:50.043Z,13.19
2019-04-07T19:39:35.242Z,13.15
2019-04-07T19:42:20.615Z,13.08
2019-04-07T19:45:11.191Z,12.96
2019-04-07T19:47:55.238Z,12.91
2019-04-07T19:50:56.338Z,12.87
2019-04-07T19:53:43.294Z,12.87
2019-04-07T19:56:19.256Z,12.71
2019-04-07T19:59:08.304Z,12.78
2019-04-07T20:02:09.631Z,12.75
2019-04-07T20:04:55.064Z,12.60
2019-04-07T20:07:40.441Z,12.55
2019-04-07T20:10:30.708Z,12.50
2019-04-07T20:13:19.858Z,12.48
2019-04-07T20:15:59.189Z,12.42
2019-04-07T20:18:45.923Z,12.31
2019-04-07T20:21:49.358Z,12.33
2019-04-07T20:24:20.371Z,12.39
2019-04-07T20:27:07.183Z,12.23
2019-04-07T20:30:00.528Z,12.25
2019-04-07T20:32:35.255Z,12.26
2019-04-07T20:35:21.784Z,12.07
2019-04-07T20:38:04.778Z,12.16
2019-04-07T20:40:44.438Z,12.24
2019-04-07T20:43:33.010Z,12.09
2019-04-07T20:46:29.531Z,11.99
2019-04-07T20:49:35.768Z,11.99
2019-04-07T20:52:25.006Z,11.93
2019-04-07T20:55:19.504Z,11.88
2019-04-07T20:58:16.263Z,11.90
2019-04-07T21:01:04.631Z,11.90
2019-04-07T21:04:04.505Z,11.82
2019-04-07T21:06:54.975Z,11.82
2019-04-07T21:09:41.993Z,11.71
2019-04-07T21:12:31.064Z,11.79
2019-04-07T21:15:31.142Z,11.75
2019-04-07T21:18:39.128Z,11.75
2019-04-07T21:21:29.184Z,11.65
2019-04-07T21:24:21.804Z,11.64
2019-04-07T21:26:57.960Z,11.60
2019-04-07T21:29:45.861Z,11.59
2019-04-07T21:32:27.191Z,11.55
2019-04-07T21:35:25.925Z,11.50
2019-04-07T21:38:11.208Z,11.51
2019-04-07T21:40:58.020Z,11.52
2019-04-07T21:43:30.139Z,11.54
2019-04-07T21:46:22.438Z,11.56
2019-04-07T21:49:10.724Z,11.55
2019-04-07T21:52:00.110Z,11.55
2019-04-07T21:55:06.003Z,11.56
2019-04-07T21:57:41.751Z,11.55
2019-04-07T22:00:31.630Z,11.56
2019-04-07T22:03:22.238Z,11.41
2019-04-07T22:06:07.389Z,11.42
2019-04-07T22:08:48.343Z,11.45
2019-04-07T22:11:15.637Z,11.45
2019-04-07T22:13:42.963Z,11.33
2019-04-07T22:16:10.277Z,11.42
2019-04-07T22:18:39.207Z,11.44
2019-04-07T22:21:07.654Z,11.41
2019-04-07T22:23:35.059Z,11.43
2019-04-07T22:26:02.559Z,11.43
2019-04-07T22:28:30.346Z,11.46
2019-04-07T22:30:59.357Z,11.46
2019-04-07T22:33:30.123Z,11.47
2019-04-07T22:35:55.980Z,11.59
2019-04-07T22:38:23.800Z,11.57
2019-04-07T22:40:52.149Z,11.52
2019-04-07T22:43:20.018Z,11.39
2019-04-07T22:45:58.843Z,11.39
2019-04-07T22:48:18.371Z,11.44
2019-04-07T22:50:48.044Z,11.37
2019-04-07T22:53:15.362Z,11.46
2019-04-07T22:55:42.572Z,11.32
2019-04-07T22:58:09.829Z,11.36
2019-04-07T23:00:37.158Z,11.19
2019-04-07T23:03:04.577Z,11.44
2019-04-07T23:05:31.917Z,11.47
2019-04-07T23:07:59.912Z,11.36
2019-04-07T23:10:27.494Z,11.36
2019-04-07T23:12:55.259Z,11.44
2019-04-07T23:15:22.883Z,11.35
2019-04-07T23:17:50.139Z,11.33
2019-04-07T23:20:17.522Z,11.31
2019-04-07T23:22:44.801Z,11.21
2019-04-07T23:25:12.255Z,11.27
2019-04-07T23:27:39.499Z,11.19
2019-04-07T23:30:07.431Z,11.25
2019-04-07T23:32:34.678Z,11.25
2019-04-07T23:35:02.038Z,11.22
2019-04-07T23:37:29.302Z,11.05
2019-04-07T23:39:56.588Z,11.08
2019-04-07T23:42:24.250Z,11.00
2019-04-07T23:44:52.003Z,11.23
2019-04-07T23:47:19.518Z,11.09
2019-04-07T23:49:46.881Z,11.03
2019-04-07T23:52:14.559Z,11.09
2019-04-07T23:54:41.984Z,11.09
2019-04-07T23:57:09.400Z,11.07
2019-04-07T23:59:36.584Z,10.99
